sensor_id;sensor_type;location;lat;lon;timestamp;temperature;humidity
11617;DHT22;5864;52.998;9.068;2024-03-23T00:54:37;7.70;1.00
11617;DHT22;5864;52.998;9.068;2024-03-23T00:57:04;7.60;1.00
11617;DHT22;5864;52.998;9.068;2024-03-23T00:59:30;7.60;6.10
11617;DHT22;5864;52.998;9.068;2024-03-23T01:01:57;7.60;1.10
11617;DHT22;5864;52.998;9.068;2024-03-23T01:04:23;7.60;1.00
11617;DHT22;5864;52.998;9.068;2024-03-23T01:06:50;7.60;1.00
11617;DHT22;5864;52.998;9.068;2024-03-23T01:09:16;7.60;1.00
11617;DHT22;5864;52.998;9.068;2024-03-23T01:11:45;7.50;1.00
11617;DHT22;5864;52.998;9.068;2024-03-23T01:14:11;7.50;1.20
11617;DHT22;5864;52.998;9.068;2024-03-23T01:16:37;7.50;3.90
11617;DHT22;5864;52.998;9.068;2024-03-23T01:19:03;7.50;1.00
11617;DHT22;5864;52.998;9.068;2024-03-23T01:21:31;7.50;1.00
11617;DHT22;5864;52.998;9.068;2024-03-23T01:23:57;7.50;1.00
11617;DHT22;5864;52.998;9.068;2024-03-23T01:26:24;7.50;1.00
11617;DHT22;5864;52.998;9.068;2024-03-23T01:28:52;7.50;1.00
11617;DHT22;5864;52.998;9.068;2024-03-23T01:31:19;7.40;1.00
11617;DHT22;5864;52.998;9.068;2024-03-23T01:33:45;7.40;1.00
11617;DHT22;5864;52.998;9.068;2024-03-23T01:36:12;7.30;1.00
11617;DHT22;5864;52.998;9.068;2024-03-23T01:38:38;7.40;3.70
11617;DHT22;5864;52.998;9.068;2024-03-23T01:41:05;7.30;1.00
11617;DHT22;5864;52.998;9.068;2024-03-23T01:43:31;7.40;8.60
11617;DHT22;5864;52.998;9.068;2024-03-23T01:45:59;7.30;1.00
11617;DHT22;5864;52.998;9.068;2024-03-23T01:48:25;7.40;3.90
11617;DHT22;5864;52.998;9.068;2024-03-23T01:50:52;7.30;1.00
11617;DHT22;5864;52.998;9.068;2024-03-23T01:53:18;7.30;1.00
11617;DHT22;5864;52.998;9.068;2024-03-23T01:55:50;7.30;1.00
11617;DHT22;5864;52.998;9.068;2024-03-23T01:58:16;7.30;1.00
11617;DHT22;5864;52.998;9.068;2024-03-23T02:00:43;7.30;1.00
11617;DHT22;5864;52.998;9.068;2024-03-23T02:03:23;7.20;1.00
11617;DHT22;5864;52.998;9.068;2024-03-23T02:05:51;7.20;1.00
11617;DHT22;5864;52.998;9.068;2024-03-23T02:08:18;7.20;1.00
11617;DHT22;5864;52.998;9.068;2024-03-23T02:10:46;7.10;1.00
11617;DHT22;5864;52.998;9.068;2024-03-23T02:13:14;7.10;1.00
11617;DHT22;5864;52.998;9.068;2024-03-23T02:15:41;7.20;1.00
11617;DHT22;5864;52.998;9.068;2024-03-23T02:18:08;7.20;4.20
11617;DHT22;5864;52.998;9.068;2024-03-23T02:20:37;7.20;1.00
11617;DHT22;5864;52.998;9.068;2024-03-23T02:23:04;7.10;3.90
11617;DHT22;5864;52.998;9.068;2024-03-23T02:25:32;7.10;11.20
11617;DHT22;5864;52.998;9.068;2024-03-23T02:27:59;7.10;9.40
11617;DHT22;5864;52.998;9.068;2024-03-23T02:30:26;7.10;15.00
11617;DHT22;5864;52.998;9.068;2024-03-23T02:32:52;7.10;9.70
11617;DHT22;5864;52.998;9.068;2024-03-23T02:35:19;7.10;8.90
11617;DHT22;5864;52.998;9.068;2024-03-23T02:37:46;7.10;11.30
11617;DHT22;5864;52.998;9.068;2024-03-23T02:40:15;7.10;13.70
11617;DHT22;5864;52.998;9.068;2024-03-23T02:42:42;7.10;2.20
11617;DHT22;5864;52.998;9.068;2024-03-23T02:45:09;7.10;1.20
11617;DHT22;5864;52.998;9.068;2024-03-23T02:47:35;7.10;1.20
11617;DHT22;5864;52.998;9.068;2024-03-23T02:50:02;7.10;2.30
11617;DHT22;5864;52.998;9.068;2024-03-23T02:52:28;7.10;12.90
11617;DHT22;5864;52.998;9.068;2024-03-23T02:54:55;7.00;5.40
11617;DHT22;5864;52.998;9.068;2024-03-23T02:57:23;7.00;14.50
11617;DHT22;5864;52.998;9.068;2024-03-23T02:59:50;7.00;7.10
11617;DHT22;5864;52.998;9.068;2024-03-23T03:02:16;7.00;10.40
11617;DHT22;5864;52.998;9.068;2024-03-23T03:04:43;7.00;18.90
11617;DHT22;5864;52.998;9.068;2024-03-23T03:07:09;7.00;14.90
11617;DHT22;5864;52.998;9.068;2024-03-23T03:09:36;7.00;17.50
11617;DHT22;5864;52.998;9.068;2024-03-23T03:12:05;7.00;18.80
11617;DHT22;5864;52.998;9.068;2024-03-23T03:14:33;7.00;21.00
11617;DHT22;5864;52.998;9.068;2024-03-23T03:16:59;7.00;10.40
11617;DHT22;5864;52.998;9.068;2024-03-23T03:19:26;7.00;15.90
11617;DHT22;5864;52.998;9.068;2024-03-23T03:21:53;7.00;1.00
11617;DHT22;5864;52.998;9.068;2024-03-23T03:24:20;7.00;3.90
11617;DHT22;5864;52.998;9.068;2024-03-23T03:26:46;7.00;4.10
11617;DHT22;5864;52.998;9.068;2024-03-23T03:29:13;7.00;10.00
11617;DHT22;5864;52.998;9.068;2024-03-23T03:31:40;6.90;11.80
11617;DHT22;5864;52.998;9.068;2024-03-23T03:34:07;6.90;8.10
11617;DHT22;5864;52.998;9.068;2024-03-23T03:36:33;6.90;5.50
11617;DHT22;5864;52.998;9.068;2024-03-23T03:39:00;6.90;6.20
11617;DHT22;5864;52.998;9.068;2024-03-23T03:41:28;6.90;10.70
11617;DHT22;5864;52.998;9.068;2024-03-23T03:43:55;6.90;3.30
11617;DHT22;5864;52.998;9.068;2024-03-23T03:46:21;6.90;21.30
11617;DHT22;5864;52.998;9.068;2024-03-23T03:48:50;6.80;9.10
11617;DHT22;5864;52.998;9.068;2024-03-23T03:51:16;6.80;23.50
11617;DHT22;5864;52.998;9.068;2024-03-23T03:53:43;6.80;16.80
11617;DHT22;5864;52.998;9.068;2024-03-23T03:56:08;6.80;7.90
11617;DHT22;5864;52.998;9.068;2024-03-23T03:58:35;6.80;10.10
11617;DHT22;5864;52.998;9.068;2024-03-23T04:01:02;6.80;15.60
11617;DHT22;5864;52.998;9.068;2024-03-23T04:03:29;6.80;10.90
11617;DHT22;5864;52.998;9.068;2024-03-23T04:05:56;6.80;9.80
11617;DHT22;5864;52.998;9.068;2024-03-23T04:08:24;6.80;14.20
11617;DHT22;5864;52.998;9.068;2024-03-23T04:10:50;6.80;10.30
11617;DHT22;5864;52.998;9.068;2024-03-23T04:13:17;6.80;1.20
11617;DHT22;5864;52.998;9.068;2024-03-23T04:15:43;6.80;8.30
11617;DHT22;5864;52.998;9.068;2024-03-23T04:18:10;6.80;5.50
11617;DHT22;5864;52.998;9.068;2024-03-23T04:20:36;6.80;2.30
11617;DHT22;5864;52.998;9.068;2024-03-23T04:23:04;6.80;19.80
11617;DHT22;5864;52.998;9.068;2024-03-23T04:25:31;6.70;5.00
11617;DHT22;5864;52.998;9.068;2024-03-23T04:27:58;6.70;10.00
11617;DHT22;5864;52.998;9.068;2024-03-23T04:30:24;6.70;4.90
11617;DHT22;5864;52.998;9.068;2024-03-23T04:32:53;6.70;19.40
11617;DHT22;5864;52.998;9.068;2024-03-23T04:35:20;6.70;16.50
11617;DHT22;5864;52.998;9.068;2024-03-23T04:37:48;6.70;12.70
11617;DHT22;5864;52.998;9.068;2024-03-23T04:40:16;6.70;12.80
11617;DHT22;5864;52.998;9.068;2024-03-23T04:42:43;6.70;9.40
11617;DHT22;5864;52.998;9.068;2024-03-23T04:45:10;6.60;8.30
11617;DHT22;5864;52.998;9.068;2024-03-23T04:47:40;6.60;1.00
11617;DHT22;5864;52.998;9.068;2024-03-23T04:50:13;6.60;1.00
11617;DHT22;5864;52.998;9.068;2024-03-23T04:52:40;6.70;9.10
11617;DHT22;5864;52.998;9.068;2024-03-23T04:55:09;6.60;3.70
11617;DHT22;5864;52.998;9.068;2024-03-23T04:57:36;6.60;1.00
11617;DHT22;5864;52.998;9.068;2024-03-23T05:00:05;6.60;3.90
11617;DHT22;5864;52.998;9.068;2024-03-23T05:02:43;6.60;1.00
11617;DHT22;5864;52.998;9.068;2024-03-23T05:05:11;6.60;1.00
11617;DHT22;5864;52.998;9.068;2024-03-23T05:07:38;6.60;6.90
11617;DHT22;5864;52.998;9.068;2024-03-23T05:10:05;6.60;1.00
11617;DHT22;5864;52.998;9.068;2024-03-23T05:12:37;6.60;1.00
11617;DHT22;5864;52.998;9.068;2024-03-23T05:15:05;6.60;1.00
11617;DHT22;5864;52.998;9.068;2024-03-23T05:17:31;6.60;1.00
11617;DHT22;5864;52.998;9.068;2024-03-23T05:19:58;6.50;1.00
11617;DHT22;5864;52.998;9.068;2024-03-23T05:22:25;6.50;1.00
11617;DHT22;5864;52.998;9.068;2024-03-23T05:24:52;6.50;1.00
11617;DHT22;5864;52.998;9.068;2024-03-23T05:27:19;6.50;1.00
11617;DHT22;5864;52.998;9.068;2024-03-23T05:29:47;6.50;3.10
11617;DHT22;5864;52.998;9.068;2024-03-23T05:32:13;6.50;6.30
11617;DHT22;5864;52.998;9.068;2024-03-23T05:34:40;6.60;1.00
11617;DHT22;5864;52.998;9.068;2024-03-23T05:37:06;6.60;1.00
11617;DHT22;5864;52.998;9.068;2024-03-23T05:39:33;6.50;1.00
11617;DHT22;5864;52.998;9.068;2024-03-23T05:41:59;6.60;1.00
11617;DHT22;5864;52.998;9.068;2024-03-23T05:44:26;6.50;1.00
11617;DHT22;5864;52.998;9.068;2024-03-23T05:46:55;6.50;1.00
11617;DHT22;5864;52.998;9.068;2024-03-23T05:49:22;6.50;1.00
11617;DHT22;5864;52.998;9.068;2024-03-23T05:51:48;6.50;1.00
11617;DHT22;5864;52.998;9.068;2024-03-23T05:54:15;6.50;1.00
11617;DHT22;5864;52.998;9.068;2024-03-23T05:56:41;6.50;1.00
11617;DHT22;5864;52.998;9.068;2024-03-23T05:59:08;6.50;1.00
11617;DHT22;5864;52.998;9.068;2024-03-23T06:01:35;6.40;1.00
11617;DHT22;5864;52.998;9.068;2024-03-23T06:04:03;6.40;1.00
11617;DHT22;5864;52.998;9.068;2024-03-23T06:06:29;6.40;1.00
11617;DHT22;5864;52.998;9.068;2024-03-23T06:08:56;6.40;1.00
11617;DHT22;5864;52.998;9.068;2024-03-23T06:11:23;6.40;1.00
11617;DHT22;5864;52.998;9.068;2024-03-23T06:13:52;6.40;1.00
11617;DHT22;5864;52.998;9.068;2024-03-23T06:16:18;6.50;1.00
11617;DHT22;5864;52.998;9.068;2024-03-23T06:18:49;6.50;1.00
11617;DHT22;5864;52.998;9.068;2024-03-23T06:21:16;6.40;1.00
11617;DHT22;5864;52.998;9.068;2024-03-23T06:23:44;6.50;1.00
11617;DHT22;5864;52.998;9.068;2024-03-23T06:26:16;6.50;1.00
11617;DHT22;5864;52.998;9.068;2024-03-23T06:28:43;6.40;1.00
11617;DHT22;5864;52.998;9.068;2024-03-23T06:31:11;6.60;1.00
11617;DHT22;5864;52.998;9.068;2024-03-23T06:33:37;7.00;1.00
11617;DHT22;5864;52.998;9.068;2024-03-23T06:36:05;7.50;1.00
11617;DHT22;5864;52.998;9.068;2024-03-23T06:38:32;8.20;1.00
11617;DHT22;5864;52.998;9.068;2024-03-23T06:41:02;9.40;1.00
11617;DHT22;5864;52.998;9.068;2024-03-23T06:43:29;10.40;1.00
11617;DHT22;5864;52.998;9.068;2024-03-23T06:45:56;11.50;99.90
11617;DHT22;5864;52.998;9.068;2024-03-23T06:48:22;12.10;1.00
11617;DHT22;5864;52.998;9.068;2024-03-23T06:50:54;12.30;1.00
11617;DHT22;5864;52.998;9.068;2024-03-23T06:53:21;12.50;99.90
11617;DHT22;5864;52.998;9.068;2024-03-23T06:55:51;12.90;1.00
11617;DHT22;5864;52.998;9.068;2024-03-23T06:58:19;14.10;99.90
11617;DHT22;5864;52.998;9.068;2024-03-23T07:00:46;15.20;1.00
11617;DHT22;5864;52.998;9.068;2024-03-23T07:03:12;15.90;99.90
11617;DHT22;5864;52.998;9.068;2024-03-23T07:05:39;16.40;14.90
11617;DHT22;5864;52.998;9.068;2024-03-23T07:08:05;17.20;1.00
11617;DHT22;5864;52.998;9.068;2024-03-23T07:10:33;17.80;1.00
11617;DHT22;5864;52.998;9.068;2024-03-23T07:13:00;18.80;99.90
11617;DHT22;5864;52.998;9.068;2024-03-23T07:15:27;19.00;99.90
11617;DHT22;5864;52.998;9.068;2024-03-23T07:17:53;19.60;99.90
11617;DHT22;5864;52.998;9.068;2024-03-23T07:20:20;19.50;99.90
11617;DHT22;5864;52.998;9.068;2024-03-23T07:22:46;19.80;99.90
11617;DHT22;5864;52.998;9.068;2024-03-23T07:25:14;19.60;99.90
11617;DHT22;5864;52.998;9.068;2024-03-23T07:27:40;19.50;99.90
11617;DHT22;5864;52.998;9.068;2024-03-23T07:30:09;19.50;99.90
11617;DHT22;5864;52.998;9.068;2024-03-23T07:32:35;19.60;99.90
11617;DHT22;5864;52.998;9.068;2024-03-23T07:35:02;19.80;99.90
11617;DHT22;5864;52.998;9.068;2024-03-23T07:37:28;20.40;99.90
11617;DHT22;5864;52.998;9.068;2024-03-23T07:39:55;20.40;99.90
11617;DHT22;5864;52.998;9.068;2024-03-23T07:42:23;20.20;99.90
11617;DHT22;5864;52.998;9.068;2024-03-23T07:44:52;20.70;99.90
11617;DHT22;5864;52.998;9.068;2024-03-23T07:47:20;21.00;99.90
11617;DHT22;5864;52.998;9.068;2024-03-23T07:49:48;20.70;99.90
11617;DHT22;5864;52.998;9.068;2024-03-23T07:52:14;20.70;99.90
11617;DHT22;5864;52.998;9.068;2024-03-23T07:54:41;20.90;99.90
11617;DHT22;5864;52.998;9.068;2024-03-23T07:57:07;20.80;99.90
11617;DHT22;5864;52.998;9.068;2024-03-23T07:59:34;21.40;99.90
11617;DHT22;5864;52.998;9.068;2024-03-23T08:02:00;21.60;99.90
11617;DHT22;5864;52.998;9.068;2024-03-23T08:04:29;20.20;99.90
11617;DHT22;5864;52.998;9.068;2024-03-23T08:06:56;19.80;99.90
11617;DHT22;5864;52.998;9.068;2024-03-23T08:09:22;19.50;99.90
11617;DHT22;5864;52.998;9.068;2024-03-23T08:11:49;19.10;99.90
11617;DHT22;5864;52.998;9.068;2024-03-23T08:14:15;18.00;99.90
11617;DHT22;5864;52.998;9.068;2024-03-23T08:16:42;17.00;99.90
11617;DHT22;5864;52.998;9.068;2024-03-23T08:19:14;16.00;99.90
11617;DHT22;5864;52.998;9.068;2024-03-23T08:21:42;15.10;1.00
11617;DHT22;5864;52.998;9.068;2024-03-23T08:24:08;13.90;1.00
11617;DHT22;5864;52.998;9.068;2024-03-23T08:26:35;13.40;99.90
11617;DHT22;5864;52.998;9.068;2024-03-23T08:29:03;13.90;20.60
11617;DHT22;5864;52.998;9.068;2024-03-23T08:31:30;14.20;99.90
11617;DHT22;5864;52.998;9.068;2024-03-23T08:33:57;14.20;15.00
11617;DHT22;5864;52.998;9.068;2024-03-23T08:36:23;13.90;99.90
11617;DHT22;5864;52.998;9.068;2024-03-23T08:38:52;14.10;99.90
11617;DHT22;5864;52.998;9.068;2024-03-23T08:41:19;13.80;99.90
11617;DHT22;5864;52.998;9.068;2024-03-23T08:43:46;14.10;91.20
11617;DHT22;5864;52.998;9.068;2024-03-23T08:46:13;14.30;90.60
11617;DHT22;5864;52.998;9.068;2024-03-23T08:48:42;14.80;1.00
11617;DHT22;5864;52.998;9.068;2024-03-23T08:51:10;15.90;1.00
11617;DHT22;5864;52.998;9.068;2024-03-23T08:53:38;16.20;99.90
11617;DHT22;5864;52.998;9.068;2024-03-23T08:56:06;16.10;99.90
11617;DHT22;5864;52.998;9.068;2024-03-23T08:58:34;15.70;99.90
11617;DHT22;5864;52.998;9.068;2024-03-23T09:01:06;15.80;99.90
11617;DHT22;5864;52.998;9.068;2024-03-23T09:03:34;15.20;99.90
11617;DHT22;5864;52.998;9.068;2024-03-23T09:06:01;14.40;1.00
11617;DHT22;5864;52.998;9.068;2024-03-23T09:08:28;14.80;99.90
11617;DHT22;5864;52.998;9.068;2024-03-23T09:10:54;15.80;99.90
11617;DHT22;5864;52.998;9.068;2024-03-23T09:13:23;17.10;99.90
11617;DHT22;5864;52.998;9.068;2024-03-23T09:15:50;16.60;99.90
11617;DHT22;5864;52.998;9.068;2024-03-23T09:18:17;16.70;99.90
11617;DHT22;5864;52.998;9.068;2024-03-23T09:20:43;17.60;99.90
11617;DHT22;5864;52.998;9.068;2024-03-23T09:23:10;17.60;99.90
11617;DHT22;5864;52.998;9.068;2024-03-23T09:25:37;16.80;99.90
11617;DHT22;5864;52.998;9.068;2024-03-23T09:28:06;16.60;99.90
11617;DHT22;5864;52.998;9.068;2024-03-23T09:30:33;16.20;99.90
11617;DHT22;5864;52.998;9.068;2024-03-23T09:33:00;15.60;99.90
11617;DHT22;5864;52.998;9.068;2024-03-23T09:35:27;15.00;99.90
11617;DHT22;5864;52.998;9.068;2024-03-23T09:37:54;14.20;99.90
11617;DHT22;5864;52.998;9.068;2024-03-23T09:40:20;14.60;99.90
11617;DHT22;5864;52.998;9.068;2024-03-23T09:42:50;14.70;99.90
11617;DHT22;5864;52.998;9.068;2024-03-23T09:45:20;14.30;99.90
11617;DHT22;5864;52.998;9.068;2024-03-23T09:47:49;13.60;99.90
11617;DHT22;5864;52.998;9.068;2024-03-23T09:50:16;12.60;1.00
11617;DHT22;5864;52.998;9.068;2024-03-23T09:52:44;12.10;1.00
11617;DHT22;5864;52.998;9.068;2024-03-23T09:55:11;11.60;1.00
11617;DHT22;5864;52.998;9.068;2024-03-23T09:57:39;11.10;1.00
11617;DHT22;5864;52.998;9.068;2024-03-23T10:00:06;10.80;99.90
11617;DHT22;5864;52.998;9.068;2024-03-23T10:02:34;10.40;98.30
11617;DHT22;5864;52.998;9.068;2024-03-23T10:05:02;10.40;1.00
11617;DHT22;5864;52.998;9.068;2024-03-23T10:07:29;10.10;99.90
11617;DHT22;5864;52.998;9.068;2024-03-23T10:09:56;10.20;1.00
11617;DHT22;5864;52.998;9.068;2024-03-23T10:12:23;10.60;1.00
11617;DHT22;5864;52.998;9.068;2024-03-23T10:14:50;11.90;1.00
11617;DHT22;5864;52.998;9.068;2024-03-23T10:17:18;12.20;1.00
11617;DHT22;5864;52.998;9.068;2024-03-23T10:19:45;12.40;99.90
11617;DHT22;5864;52.998;9.068;2024-03-23T10:22:17;12.30;99.90
11617;DHT22;5864;52.998;9.068;2024-03-23T10:24:43;12.60;1.00
11617;DHT22;5864;52.998;9.068;2024-03-23T10:27:15;13.60;99.90
11617;DHT22;5864;52.998;9.068;2024-03-23T10:29:41;14.70;1.00
11617;DHT22;5864;52.998;9.068;2024-03-23T10:32:09;15.40;1.00
11617;DHT22;5864;52.998;9.068;2024-03-23T10:34:36;15.60;1.00
11617;DHT22;5864;52.998;9.068;2024-03-23T10:37:04;15.90;99.90
11617;DHT22;5864;52.998;9.068;2024-03-23T10:39:32;15.70;99.90
11617;DHT22;5864;52.998;9.068;2024-03-23T10:42:02;15.50;99.90
11617;DHT22;5864;52.998;9.068;2024-03-23T10:44:30;15.20;99.90
11617;DHT22;5864;52.998;9.068;2024-03-23T10:46:58;15.00;1.00
11617;DHT22;5864;52.998;9.068;2024-03-23T10:49:29;14.90;1.00
11617;DHT22;5864;52.998;9.068;2024-03-23T10:52:00;15.00;1.00
11617;DHT22;5864;52.998;9.068;2024-03-23T10:54:26;15.10;1.00
11617;DHT22;5864;52.998;9.068;2024-03-23T10:57:01;14.60;1.00
11617;DHT22;5864;52.998;9.068;2024-03-23T10:59:30;14.20;1.00
11617;DHT22;5864;52.998;9.068;2024-03-23T11:01:59;14.40;1.00
11617;DHT22;5864;52.998;9.068;2024-03-23T11:04:32;14.60;1.00
11617;DHT22;5864;52.998;9.068;2024-03-23T11:07:00;15.00;1.00
11617;DHT22;5864;52.998;9.068;2024-03-23T11:09:44;14.80;99.90
11617;DHT22;5864;52.998;9.068;2024-03-23T11:12:27;14.20;99.90
11617;DHT22;5864;52.998;9.068;2024-03-23T11:14:54;13.80;99.90
11617;DHT22;5864;52.998;9.068;2024-03-23T11:17:23;13.60;1.00
11617;DHT22;5864;52.998;9.068;2024-03-23T11:19:57;13.50;1.00
11617;DHT22;5864;52.998;9.068;2024-03-23T11:22:43;13.00;1.00
11617;DHT22;5864;52.998;9.068;2024-03-23T11:25:18;13.00;22.60
11617;DHT22;5864;52.998;9.068;2024-03-23T11:27:49;13.10;99.90
11617;DHT22;5864;52.998;9.068;2024-03-23T11:30:16;13.30;1.00
11617;DHT22;5864;52.998;9.068;2024-03-23T11:32:45;13.30;1.00
11617;DHT22;5864;52.998;9.068;2024-03-23T11:35:24;13.60;1.00
11617;DHT22;5864;52.998;9.068;2024-03-23T11:38:07;14.10;1.00
11617;DHT22;5864;52.998;9.068;2024-03-23T11:40:35;14.50;99.90
11617;DHT22;5864;52.998;9.068;2024-03-23T11:43:04;15.00;99.90
11617;DHT22;5864;52.998;9.068;2024-03-23T11:45:35;15.20;99.90
11617;DHT22;5864;52.998;9.068;2024-03-23T11:48:06;15.20;99.90
11617;DHT22;5864;52.998;9.068;2024-03-23T11:50:35;15.50;99.90
11617;DHT22;5864;52.998;9.068;2024-03-23T11:53:14;15.70;99.90
11617;DHT22;5864;52.998;9.068;2024-03-23T11:55:42;15.10;99.90
11617;DHT22;5864;52.998;9.068;2024-03-23T11:58:10;15.30;99.90
11617;DHT22;5864;52.998;9.068;2024-03-23T12:00:37;15.30;99.90
11617;DHT22;5864;52.998;9.068;2024-03-23T12:03:04;14.60;99.90
11617;DHT22;5864;52.998;9.068;2024-03-23T12:05:32;14.30;99.90
11617;DHT22;5864;52.998;9.068;2024-03-23T12:08:16;14.20;99.90
11617;DHT22;5864;52.998;9.068;2024-03-23T12:10:44;13.60;99.90
11617;DHT22;5864;52.998;9.068;2024-03-23T12:13:15;13.40;99.90
11617;DHT22;5864;52.998;9.068;2024-03-23T12:15:43;13.30;99.90
11617;DHT22;5864;52.998;9.068;2024-03-23T12:18:09;13.70;99.90
11617;DHT22;5864;52.998;9.068;2024-03-23T12:20:37;13.80;99.90
11617;DHT22;5864;52.998;9.068;2024-03-23T12:23:10;13.40;99.90
11617;DHT22;5864;52.998;9.068;2024-03-23T12:25:41;13.50;1.00
11617;DHT22;5864;52.998;9.068;2024-03-23T12:28:07;13.40;1.00
11617;DHT22;5864;52.998;9.068;2024-03-23T12:30:38;13.30;1.00
11617;DHT22;5864;52.998;9.068;2024-03-23T12:33:05;13.80;1.00
11617;DHT22;5864;52.998;9.068;2024-03-23T12:35:32;13.80;99.90
11617;DHT22;5864;52.998;9.068;2024-03-23T12:37:58;13.60;99.90
11617;DHT22;5864;52.998;9.068;2024-03-23T12:40:25;12.80;99.90
11617;DHT22;5864;52.998;9.068;2024-03-23T12:42:56;11.90;99.90
11617;DHT22;5864;52.998;9.068;2024-03-23T12:45:23;10.90;44.50
11617;DHT22;5864;52.998;9.068;2024-03-23T12:47:50;10.30;1.00
11617;DHT22;5864;52.998;9.068;2024-03-23T12:50:19;10.10;99.90
11617;DHT22;5864;52.998;9.068;2024-03-23T12:52:45;9.80;1.00
11617;DHT22;5864;52.998;9.068;2024-03-23T12:55:12;9.10;99.90
11617;DHT22;5864;52.998;9.068;2024-03-23T12:57:38;8.50;1.00
11617;DHT22;5864;52.998;9.068;2024-03-23T13:00:07;8.30;23.40
11617;DHT22;5864;52.998;9.068;2024-03-23T13:02:36;8.30;1.00
11617;DHT22;5864;52.998;9.068;2024-03-23T13:05:06;8.30;21.50
11617;DHT22;5864;52.998;9.068;2024-03-23T13:07:33;8.40;99.90
11617;DHT22;5864;52.998;9.068;2024-03-23T13:10:01;8.50;1.00
11617;DHT22;5864;52.998;9.068;2024-03-23T13:12:28;8.70;56.80
11617;DHT22;5864;52.998;9.068;2024-03-23T13:14:55;8.80;1.00
11617;DHT22;5864;52.998;9.068;2024-03-23T13:17:21;9.00;99.90
11617;DHT22;5864;52.998;9.068;2024-03-23T13:19:47;9.00;83.80
11617;DHT22;5864;52.998;9.068;2024-03-23T13:22:15;9.30;99.90
11617;DHT22;5864;52.998;9.068;2024-03-23T13:24:42;9.50;1.00
11617;DHT22;5864;52.998;9.068;2024-03-23T13:27:08;9.60;1.00
11617;DHT22;5864;52.998;9.068;2024-03-23T13:29:36;9.70;78.90
11617;DHT22;5864;52.998;9.068;2024-03-23T13:32:03;10.20;1.00
11617;DHT22;5864;52.998;9.068;2024-03-23T13:34:30;10.80;1.00
11617;DHT22;5864;52.998;9.068;2024-03-23T13:36:57;11.30;99.90
11617;DHT22;5864;52.998;9.068;2024-03-23T13:39:26;11.80;7.50
11617;DHT22;5864;52.998;9.068;2024-03-23T13:41:53;11.80;99.90
11617;DHT22;5864;52.998;9.068;2024-03-23T13:44:21;12.10;1.90
11617;DHT22;5864;52.998;9.068;2024-03-23T13:46:47;12.50;99.90
11617;DHT22;5864;52.998;9.068;2024-03-23T13:49:25;12.60;99.90
11617;DHT22;5864;52.998;9.068;2024-03-23T13:51:52;12.70;1.00
11617;DHT22;5864;52.998;9.068;2024-03-23T13:54:20;12.50;1.00
11617;DHT22;5864;52.998;9.068;2024-03-23T13:56:49;12.20;99.90
11617;DHT22;5864;52.998;9.068;2024-03-23T13:59:16;11.60;36.10
11617;DHT22;5864;52.998;9.068;2024-03-23T14:01:43;10.30;1.00
11617;DHT22;5864;52.998;9.068;2024-03-23T14:04:10;9.40;99.90
11617;DHT22;5864;52.998;9.068;2024-03-23T14:06:36;8.90;1.00
11617;DHT22;5864;52.998;9.068;2024-03-23T14:09:03;8.40;1.00
11617;DHT22;5864;52.998;9.068;2024-03-23T14:11:30;8.10;99.90
11617;DHT22;5864;52.998;9.068;2024-03-23T14:13:58;8.00;99.90
11617;DHT22;5864;52.998;9.068;2024-03-23T14:16:24;8.00;64.40
11617;DHT22;5864;52.998;9.068;2024-03-23T14:18:51;8.00;1.00
11617;DHT22;5864;52.998;9.068;2024-03-23T14:21:17;8.00;99.90
11617;DHT22;5864;52.998;9.068;2024-03-23T14:23:44;8.10;1.00
11617;DHT22;5864;52.998;9.068;2024-03-23T14:26:10;8.20;1.00
11617;DHT22;5864;52.998;9.068;2024-03-23T14:28:37;8.20;1.00
11617;DHT22;5864;52.998;9.068;2024-03-23T14:31:04;8.40;1.00
11617;DHT22;5864;52.998;9.068;2024-03-23T14:33:36;8.90;99.90
11617;DHT22;5864;52.998;9.068;2024-03-23T14:36:04;9.30;99.90
11617;DHT22;5864;52.998;9.068;2024-03-23T14:38:31;9.40;1.00
11617;DHT22;5864;52.998;9.068;2024-03-23T14:40:58;9.70;99.90
11617;DHT22;5864;52.998;9.068;2024-03-23T14:43:26;9.80;99.90
11617;DHT22;5864;52.998;9.068;2024-03-23T14:46:10;10.00;1.00
11617;DHT22;5864;52.998;9.068;2024-03-23T14:48:38;10.20;99.90
11617;DHT22;5864;52.998;9.068;2024-03-23T14:51:04;10.50;99.90
11617;DHT22;5864;52.998;9.068;2024-03-23T14:53:32;10.60;99.90
11617;DHT22;5864;52.998;9.068;2024-03-23T14:55:59;10.30;99.90
11617;DHT22;5864;52.998;9.068;2024-03-23T14:58:26;10.20;1.00
11617;DHT22;5864;52.998;9.068;2024-03-23T15:00:53;9.90;1.00
11617;DHT22;5864;52.998;9.068;2024-03-23T15:03:21;9.80;1.00
11617;DHT22;5864;52.998;9.068;2024-03-23T15:05:54;10.00;99.90
11617;DHT22;5864;52.998;9.068;2024-03-23T15:08:22;10.20;99.90
11617;DHT22;5864;52.998;9.068;2024-03-23T15:10:49;10.40;1.00
11617;DHT22;5864;52.998;9.068;2024-03-23T15:13:16;10.40;99.90
11617;DHT22;5864;52.998;9.068;2024-03-23T15:15:42;10.30;1.00
11617;DHT22;5864;52.998;9.068;2024-03-23T15:18:11;10.30;1.00
11617;DHT22;5864;52.998;9.068;2024-03-23T15:20:39;10.40;34.40
11617;DHT22;5864;52.998;9.068;2024-03-23T15:23:07;10.50;1.00
11617;DHT22;5864;52.998;9.068;2024-03-23T15:25:33;10.50;1.00
11617;DHT22;5864;52.998;9.068;2024-03-23T15:28:00;10.50;1.00
11617;DHT22;5864;52.998;9.068;2024-03-23T15:30:26;10.50;6.40
11617;DHT22;5864;52.998;9.068;2024-03-23T15:32:54;10.60;1.00
11617;DHT22;5864;52.998;9.068;2024-03-23T15:35:20;10.40;1.00
11617;DHT22;5864;52.998;9.068;2024-03-23T15:37:50;10.30;1.00
11617;DHT22;5864;52.998;9.068;2024-03-23T15:40:16;10.20;1.00
11617;DHT22;5864;52.998;9.068;2024-03-23T15:42:44;10.10;99.90
11617;DHT22;5864;52.998;9.068;2024-03-23T15:45:10;9.90;99.90
11617;DHT22;5864;52.998;9.068;2024-03-23T15:47:37;9.60;99.90
11617;DHT22;5864;52.998;9.068;2024-03-23T15:50:03;9.50;1.00
11617;DHT22;5864;52.998;9.068;2024-03-23T15:52:35;9.40;99.90
11617;DHT22;5864;52.998;9.068;2024-03-23T15:55:03;9.20;74.40
11617;DHT22;5864;52.998;9.068;2024-03-23T15:57:33;9.10;1.00
11617;DHT22;5864;52.998;9.068;2024-03-23T15:59:59;8.90;99.90
11617;DHT22;5864;52.998;9.068;2024-03-23T16:02:27;8.80;1.00
11617;DHT22;5864;52.998;9.068;2024-03-23T16:04:54;8.70;99.90
11617;DHT22;5864;52.998;9.068;2024-03-23T16:07:21;8.60;85.00
11617;DHT22;5864;52.998;9.068;2024-03-23T16:09:47;8.30;1.00
11617;DHT22;5864;52.998;9.068;2024-03-23T16:12:15;8.00;1.00
11617;DHT22;5864;52.998;9.068;2024-03-23T16:14:42;7.90;1.00
11617;DHT22;5864;52.998;9.068;2024-03-23T16:17:09;7.60;1.00
11617;DHT22;5864;52.998;9.068;2024-03-23T16:19:35;7.60;1.00
11617;DHT22;5864;52.998;9.068;2024-03-23T16:22:03;7.60;1.00
11617;DHT22;5864;52.998;9.068;2024-03-23T16:24:29;7.90;99.90
11617;DHT22;5864;52.998;9.068;2024-03-23T16:26:56;8.20;1.00
11617;DHT22;5864;52.998;9.068;2024-03-23T16:29:24;8.50;1.00
11617;DHT22;5864;52.998;9.068;2024-03-23T16:31:51;8.90;99.90
11617;DHT22;5864;52.998;9.068;2024-03-23T16:34:17;9.10;1.00
11617;DHT22;5864;52.998;9.068;2024-03-23T16:36:44;9.20;1.00
11617;DHT22;5864;52.998;9.068;2024-03-23T16:39:10;9.00;1.00
11617;DHT22;5864;52.998;9.068;2024-03-23T16:41:37;9.00;1.00
11617;DHT22;5864;52.998;9.068;2024-03-23T16:44:04;8.90;99.90
11617;DHT22;5864;52.998;9.068;2024-03-23T16:46:33;8.80;1.00
11617;DHT22;5864;52.998;9.068;2024-03-23T16:48:59;8.70;1.00
11617;DHT22;5864;52.998;9.068;2024-03-23T16:51:26;8.70;99.90
11617;DHT22;5864;52.998;9.068;2024-03-23T16:53:52;8.50;99.90
11617;DHT22;5864;52.998;9.068;2024-03-23T16:56:21;8.40;99.90
11617;DHT22;5864;52.998;9.068;2024-03-23T16:58:47;8.30;1.00